sensor_id;sensor_type;location;lat;lon;timestamp;P1;durP1;ratioP1;P2;durP2;ratioP2
47167;SDS011;32931;47.778;17.806;2023-08-17T00:00:27;16.50;;;6.50;;
47167;SDS011;32931;47.778;17.806;2023-08-17T00:02:53;11.32;;;6.38;;
47167;SDS011;32931;47.778;17.806;2023-08-17T00:05:19;20.52;;;7.35;;
47167;SDS011;32931;47.778;17.806;2023-08-17T00:07:45;17.50;;;6.70;;
47167;SDS011;32931;47.778;17.806;2023-08-17T00:10:11;15.88;;;7.35;;
47167;SDS011;32931;47.778;17.806;2023-08-17T00:12:37;10.63;;;6.75;;
47167;SDS011;32931;47.778;17.806;2023-08-17T00:15:04;23.50;;;7.68;;
47167;SDS011;32931;47.778;17.806;2023-08-17T00:17:30;14.88;;;6.78;;
47167;SDS011;32931;47.778;17.806;2023-08-17T00:19:56;10.68;;;6.20;;
47167;SDS011;32931;47.778;17.806;2023-08-17T00:22:23;12.68;;;7.20;;
47167;SDS011;32931;47.778;17.806;2023-08-17T00:24:49;15.57;;;6.57;;
47167;SDS011;32931;47.778;17.806;2023-08-17T00:27:15;12.95;;;7.05;;
47167;SDS011;32931;47.778;17.806;2023-08-17T00:29:41;12.05;;;6.88;;
47167;SDS011;32931;47.778;17.806;2023-08-17T00:32:07;10.93;;;6.75;;
47167;SDS011;32931;47.778;17.806;2023-08-17T00:34:33;17.80;;;7.10;;
47167;SDS011;32931;47.778;17.806;2023-08-17T00:36:59;15.38;;;6.20;;
47167;SDS011;32931;47.778;17.806;2023-08-17T00:39:26;9.45;;;5.47;;
47167;SDS011;32931;47.778;17.806;2023-08-17T00:41:52;14.77;;;7.07;;
47167;SDS011;32931;47.778;17.806;2023-08-17T00:44:18;12.15;;;6.07;;
47167;SDS011;32931;47.778;17.806;2023-08-17T00:46:44;17.60;;;6.70;;
47167;SDS011;32931;47.778;17.806;2023-08-17T00:49:10;12.68;;;6.90;;
47167;SDS011;32931;47.778;17.806;2023-08-17T00:51:37;16.23;;;5.82;;
47167;SDS011;32931;47.778;17.806;2023-08-17T00:54:04;14.50;;;6.35;;
47167;SDS011;32931;47.778;17.806;2023-08-17T00:56:31;13.85;;;5.80;;
47167;SDS011;32931;47.778;17.806;2023-08-17T00:58:57;10.93;;;7.22;;
47167;SDS011;32931;47.778;17.806;2023-08-17T01:01:23;10.45;;;6.53;;
47167;SDS011;32931;47.778;17.806;2023-08-17T01:03:50;26.35;;;7.35;;
47167;SDS011;32931;47.778;17.806;2023-08-17T01:06:16;11.23;;;5.72;;
47167;SDS011;32931;47.778;17.806;2023-08-17T01:08:43;13.02;;;6.10;;
47167;SDS011;32931;47.778;17.806;2023-08-17T01:16:48;11.18;;;6.53;;
47167;SDS011;32931;47.778;17.806;2023-08-17T01:19:25;9.63;;;5.60;;
47167;SDS011;32931;47.778;17.806;2023-08-17T01:21:54;11.60;;;5.35;;
47167;SDS011;32931;47.778;17.806;2023-08-17T01:24:28;9.98;;;6.38;;
47167;SDS011;32931;47.778;17.806;2023-08-17T01:26:54;15.90;;;8.43;;
47167;SDS011;32931;47.778;17.806;2023-08-17T01:29:21;19.52;;;8.90;;
47167;SDS011;32931;47.778;17.806;2023-08-17T01:31:57;19.17;;;8.02;;
47167;SDS011;32931;47.778;17.806;2023-08-17T01:34:31;16.27;;;8.60;;
47167;SDS011;32931;47.778;17.806;2023-08-17T01:37:00;15.15;;;9.00;;
47167;SDS011;32931;47.778;17.806;2023-08-17T01:39:35;14.45;;;7.85;;
47167;SDS011;32931;47.778;17.806;2023-08-17T01:42:05;18.10;;;8.15;;
47167;SDS011;32931;47.778;17.806;2023-08-17T01:44:32;17.00;;;7.80;;
47167;SDS011;32931;47.778;17.806;2023-08-17T01:46:58;14.73;;;8.45;;
47167;SDS011;32931;47.778;17.806;2023-08-17T01:49:24;14.25;;;8.35;;
47167;SDS011;32931;47.778;17.806;2023-08-17T01:51:51;18.33;;;8.70;;
47167;SDS011;32931;47.778;17.806;2023-08-17T01:54:17;17.23;;;8.60;;
47167;SDS011;32931;47.778;17.806;2023-08-17T01:56:43;17.33;;;9.07;;
47167;SDS011;32931;47.778;17.806;2023-08-17T01:59:09;16.35;;;8.63;;
47167;SDS011;32931;47.778;17.806;2023-08-17T02:01:35;18.35;;;9.13;;
47167;SDS011;32931;47.778;17.806;2023-08-17T02:04:03;16.30;;;8.25;;
47167;SDS011;32931;47.778;17.806;2023-08-17T02:06:29;13.40;;;8.70;;
47167;SDS011;32931;47.778;17.806;2023-08-17T02:08:55;13.95;;;9.10;;
47167;SDS011;32931;47.778;17.806;2023-08-17T02:11:21;14.75;;;8.88;;
47167;SDS011;32931;47.778;17.806;2023-08-17T02:13:47;15.20;;;8.63;;
47167;SDS011;32931;47.778;17.806;2023-08-17T02:16:13;14.50;;;9.00;;
47167;SDS011;32931;47.778;17.806;2023-08-17T02:18:40;16.45;;;8.63;;
47167;SDS011;32931;47.778;17.806;2023-08-17T02:21:06;18.90;;;9.05;;
47167;SDS011;32931;47.778;17.806;2023-08-17T02:23:32;19.73;;;7.85;;
47167;SDS011;32931;47.778;17.806;2023-08-17T02:25:58;22.98;;;8.07;;
47167;SDS011;32931;47.778;17.806;2023-08-17T02:28:24;13.85;;;8.00;;
47167;SDS011;32931;47.778;17.806;2023-08-17T02:30:54;17.98;;;8.05;;
47167;SDS011;32931;47.778;17.806;2023-08-17T02:33:21;14.07;;;8.05;;
47167;SDS011;32931;47.778;17.806;2023-08-17T02:35:50;15.27;;;6.93;;
47167;SDS011;32931;47.778;17.806;2023-08-17T02:38:17;16.23;;;7.70;;
47167;SDS011;32931;47.778;17.806;2023-08-17T02:40:43;12.35;;;6.70;;
47167;SDS011;32931;47.778;17.806;2023-08-17T02:43:09;12.55;;;7.25;;
47167;SDS011;32931;47.778;17.806;2023-08-17T02:45:35;12.85;;;6.80;;
47167;SDS011;32931;47.778;17.806;2023-08-17T02:48:02;11.63;;;7.07;;
47167;SDS011;32931;47.778;17.806;2023-08-17T02:50:28;13.35;;;7.68;;
47167;SDS011;32931;47.778;17.806;2023-08-17T02:52:55;18.02;;;8.18;;
47167;SDS011;32931;47.778;17.806;2023-08-17T02:55:21;15.70;;;8.10;;
47167;SDS011;32931;47.778;17.806;2023-08-17T02:57:47;16.30;;;8.70;;
47167;SDS011;32931;47.778;17.806;2023-08-17T03:00:13;20.05;;;7.97;;
47167;SDS011;32931;47.778;17.806;2023-08-17T03:02:40;13.88;;;8.40;;
47167;SDS011;32931;47.778;17.806;2023-08-17T03:05:06;15.45;;;8.55;;
47167;SDS011;32931;47.778;17.806;2023-08-17T03:07:32;19.38;;;8.23;;
47167;SDS011;32931;47.778;17.806;2023-08-17T03:09:58;9.07;;;6.38;;
47167;SDS011;32931;47.778;17.806;2023-08-17T03:12:24;9.85;;;6.20;;
47167;SDS011;32931;47.778;17.806;2023-08-17T03:14:50;14.52;;;6.60;;
47167;SDS011;32931;47.778;17.806;2023-08-17T03:17:17;17.58;;;7.53;;
47167;SDS011;32931;47.778;17.806;2023-08-17T03:19:43;15.30;;;6.97;;
47167;SDS011;32931;47.778;17.806;2023-08-17T03:22:09;14.18;;;7.50;;
47167;SDS011;32931;47.778;17.806;2023-08-17T03:24:35;16.05;;;7.82;;
47167;SDS011;32931;47.778;17.806;2023-08-17T03:27:01;19.75;;;8.95;;
47167;SDS011;32931;47.778;17.806;2023-08-17T03:29:27;15.20;;;8.57;;
47167;SDS011;32931;47.778;17.806;2023-08-17T03:31:54;15.55;;;8.90;;
47167;SDS011;32931;47.778;17.806;2023-08-17T03:34:20;16.75;;;8.75;;
47167;SDS011;32931;47.778;17.806;2023-08-17T03:36:46;17.08;;;9.02;;
47167;SDS011;32931;47.778;17.806;2023-08-17T03:39:12;13.38;;;8.05;;
47167;SDS011;32931;47.778;17.806;2023-08-17T03:41:38;14.75;;;7.78;;
47167;SDS011;32931;47.778;17.806;2023-08-17T03:44:04;15.50;;;7.90;;
47167;SDS011;32931;47.778;17.806;2023-08-17T03:46:31;10.93;;;8.20;;
47167;SDS011;32931;47.778;17.806;2023-08-17T03:48:57;16.00;;;9.10;;
47167;SDS011;32931;47.778;17.806;2023-08-17T03:51:24;14.98;;;9.30;;
47167;SDS011;32931;47.778;17.806;2023-08-17T03:53:50;16.95;;;8.70;;
47167;SDS011;32931;47.778;17.806;2023-08-17T03:56:16;23.17;;;8.82;;
47167;SDS011;32931;47.778;17.806;2023-08-17T03:58:42;16.15;;;8.35;;
47167;SDS011;32931;47.778;17.806;2023-08-17T04:01:09;11.43;;;8.82;;
47167;SDS011;32931;47.778;17.806;2023-08-17T04:03:36;16.15;;;9.10;;
47167;SDS011;32931;47.778;17.806;2023-08-17T04:06:06;25.33;;;8.18;;
47167;SDS011;32931;47.778;17.806;2023-08-17T04:08:32;13.50;;;8.88;;
47167;SDS011;32931;47.778;17.806;2023-08-17T04:10:59;16.55;;;9.57;;
47167;SDS011;32931;47.778;17.806;2023-08-17T04:13:25;14.43;;;9.05;;
47167;SDS011;32931;47.778;17.806;2023-08-17T04:15:52;13.40;;;9.15;;
47167;SDS011;32931;47.778;17.806;2023-08-17T04:18:18;19.35;;;8.80;;
47167;SDS011;32931;47.778;17.806;2023-08-17T04:20:45;12.63;;;8.82;;
47167;SDS011;32931;47.778;17.806;2023-08-17T04:23:11;12.93;;;9.25;;
47167;SDS011;32931;47.778;17.806;2023-08-17T04:25:37;20.13;;;10.32;;
47167;SDS011;32931;47.778;17.806;2023-08-17T04:28:03;20.58;;;9.40;;
47167;SDS011;32931;47.778;17.806;2023-08-17T04:30:30;22.25;;;9.82;;
47167;SDS011;32931;47.778;17.806;2023-08-17T04:32:56;13.35;;;9.90;;
47167;SDS011;32931;47.778;17.806;2023-08-17T04:35:22;23.05;;;9.80;;
47167;SDS011;32931;47.778;17.806;2023-08-17T04:37:48;12.65;;;8.95;;
47167;SDS011;32931;47.778;17.806;2023-08-17T04:40:15;19.17;;;10.10;;
47167;SDS011;32931;47.778;17.806;2023-08-17T04:42:41;15.00;;;10.15;;
47167;SDS011;32931;47.778;17.806;2023-08-17T04:45:07;23.35;;;10.98;;
47167;SDS011;32931;47.778;17.806;2023-08-17T04:47:34;15.40;;;9.82;;
47167;SDS011;32931;47.778;17.806;2023-08-17T04:50:00;14.52;;;7.22;;
47167;SDS011;32931;47.778;17.806;2023-08-17T04:52:26;16.20;;;8.00;;
47167;SDS011;32931;47.778;17.806;2023-08-17T04:54:52;13.88;;;8.00;;
47167;SDS011;32931;47.778;17.806;2023-08-17T04:57:18;11.13;;;7.75;;
47167;SDS011;32931;47.778;17.806;2023-08-17T04:59:45;16.67;;;7.88;;
47167;SDS011;32931;47.778;17.806;2023-08-17T05:02:11;17.63;;;8.40;;
47167;SDS011;32931;47.778;17.806;2023-08-17T05:04:37;12.45;;;9.05;;
47167;SDS011;32931;47.778;17.806;2023-08-17T05:07:05;11.52;;;8.32;;
47167;SDS011;32931;47.778;17.806;2023-08-17T05:09:31;13.70;;;9.27;;
47167;SDS011;32931;47.778;17.806;2023-08-17T05:11:57;16.17;;;8.40;;
47167;SDS011;32931;47.778;17.806;2023-08-17T05:14:23;13.63;;;9.82;;
47167;SDS011;32931;47.778;17.806;2023-08-17T05:16:50;17.25;;;10.18;;
47167;SDS011;32931;47.778;17.806;2023-08-17T05:19:16;15.15;;;10.25;;
47167;SDS011;32931;47.778;17.806;2023-08-17T05:21:42;16.77;;;11.55;;
47167;SDS011;32931;47.778;17.806;2023-08-17T05:24:08;14.85;;;11.80;;
47167;SDS011;32931;47.778;17.806;2023-08-17T05:26:34;17.38;;;11.63;;
47167;SDS011;32931;47.778;17.806;2023-08-17T05:29:00;18.30;;;11.52;;
47167;SDS011;32931;47.778;17.806;2023-08-17T05:31:26;13.75;;;10.82;;
47167;SDS011;32931;47.778;17.806;2023-08-17T05:33:53;18.60;;;11.32;;
47167;SDS011;32931;47.778;17.806;2023-08-17T05:36:19;14.18;;;10.40;;
47167;SDS011;32931;47.778;17.806;2023-08-17T05:38:45;20.55;;;11.13;;
47167;SDS011;32931;47.778;17.806;2023-08-17T05:41:11;25.90;;;11.02;;
47167;SDS011;32931;47.778;17.806;2023-08-17T05:43:37;16.50;;;10.70;;
47167;SDS011;32931;47.778;17.806;2023-08-17T05:46:03;28.30;;;12.18;;
47167;SDS011;32931;47.778;17.806;2023-08-17T05:48:29;25.95;;;11.95;;
47167;SDS011;32931;47.778;17.806;2023-08-17T05:50:56;45.20;;;12.75;;
47167;SDS011;32931;47.778;17.806;2023-08-17T05:53:22;37.72;;;12.77;;
47167;SDS011;32931;47.778;17.806;2023-08-17T05:55:48;22.08;;;11.27;;
47167;SDS011;32931;47.778;17.806;2023-08-17T05:58:14;29.55;;;11.98;;
47167;SDS011;32931;47.778;17.806;2023-08-17T06:00:40;25.08;;;11.88;;
47167;SDS011;32931;47.778;17.806;2023-08-17T06:03:07;23.05;;;12.55;;
47167;SDS011;32931;47.778;17.806;2023-08-17T06:05:33;25.13;;;12.02;;
47167;SDS011;32931;47.778;17.806;2023-08-17T06:08:00;20.40;;;11.60;;
47167;SDS011;32931;47.778;17.806;2023-08-17T06:10:26;30.25;;;12.15;;
47167;SDS011;32931;47.778;17.806;2023-08-17T06:12:53;23.73;;;13.10;;
47167;SDS011;32931;47.778;17.806;2023-08-17T06:15:23;21.02;;;12.95;;
47167;SDS011;32931;47.778;17.806;2023-08-17T06:17:49;27.10;;;12.07;;
47167;SDS011;32931;47.778;17.806;2023-08-17T06:20:16;23.85;;;12.88;;
47167;SDS011;32931;47.778;17.806;2023-08-17T06:22:42;25.58;;;11.35;;
47167;SDS011;32931;47.778;17.806;2023-08-17T06:25:08;15.93;;;10.35;;
47167;SDS011;32931;47.778;17.806;2023-08-17T06:27:35;15.77;;;11.00;;
47167;SDS011;32931;47.778;17.806;2023-08-17T06:30:04;19.33;;;11.05;;
47167;SDS011;32931;47.778;17.806;2023-08-17T06:32:30;14.05;;;10.98;;
47167;SDS011;32931;47.778;17.806;2023-08-17T06:34:57;17.30;;;11.38;;
47167;SDS011;32931;47.778;17.806;2023-08-17T06:37:23;25.77;;;12.05;;
47167;SDS011;32931;47.778;17.806;2023-08-17T06:39:49;18.58;;;11.93;;
47167;SDS011;32931;47.778;17.806;2023-08-17T06:42:15;19.63;;;11.50;;
47167;SDS011;32931;47.778;17.806;2023-08-17T06:44:42;21.65;;;12.30;;
47167;SDS011;32931;47.778;17.806;2023-08-17T06:47:08;19.67;;;11.75;;
47167;SDS011;32931;47.778;17.806;2023-08-17T06:49:34;14.98;;;11.95;;
47167;SDS011;32931;47.778;17.806;2023-08-17T06:52:01;17.70;;;11.93;;
47167;SDS011;32931;47.778;17.806;2023-08-17T06:54:27;23.42;;;11.82;;
47167;SDS011;32931;47.778;17.806;2023-08-17T06:56:53;21.70;;;12.95;;
47167;SDS011;32931;47.778;17.806;2023-08-17T06:59:19;15.23;;;12.75;;
47167;SDS011;32931;47.778;17.806;2023-08-17T07:01:45;16.25;;;11.77;;
47167;SDS011;32931;47.778;17.806;2023-08-17T07:04:11;18.23;;;12.60;;
47167;SDS011;32931;47.778;17.806;2023-08-17T07:06:38;21.50;;;13.20;;
47167;SDS011;32931;47.778;17.806;2023-08-17T07:09:04;20.52;;;13.32;;
47167;SDS011;32931;47.778;17.806;2023-08-17T07:11:30;17.67;;;12.88;;
47167;SDS011;32931;47.778;17.806;2023-08-17T07:13:57;19.02;;;13.52;;
47167;SDS011;32931;47.778;17.806;2023-08-17T07:16:23;25.90;;;13.40;;
47167;SDS011;32931;47.778;17.806;2023-08-17T07:18:49;21.10;;;13.48;;
47167;SDS011;32931;47.778;17.806;2023-08-17T07:21:15;20.77;;;13.45;;
47167;SDS011;32931;47.778;17.806;2023-08-17T07:23:43;23.38;;;13.65;;
47167;SDS011;32931;47.778;17.806;2023-08-17T07:26:10;21.60;;;14.27;;
47167;SDS011;32931;47.778;17.806;2023-08-17T07:28:36;19.23;;;13.68;;
47167;SDS011;32931;47.778;17.806;2023-08-17T07:31:02;18.08;;;14.40;;
47167;SDS011;32931;47.778;17.806;2023-08-17T07:33:28;20.77;;;13.70;;
47167;SDS011;32931;47.778;17.806;2023-08-17T07:35:54;25.10;;;15.20;;
47167;SDS011;32931;47.778;17.806;2023-08-17T07:38:23;15.98;;;12.98;;
47167;SDS011;32931;47.778;17.806;2023-08-17T07:40:50;22.35;;;13.45;;
47167;SDS011;32931;47.778;17.806;2023-08-17T07:43:16;21.70;;;14.10;;
47167;SDS011;32931;47.778;17.806;2023-08-17T07:45:42;23.27;;;14.23;;
47167;SDS011;32931;47.778;17.806;2023-08-17T07:48:08;24.27;;;14.70;;
47167;SDS011;32931;47.778;17.806;2023-08-17T07:50:34;21.58;;;14.68;;
47167;SDS011;32931;47.778;17.806;2023-08-17T07:53:00;19.02;;;13.68;;
47167;SDS011;32931;47.778;17.806;2023-08-17T07:55:26;19.92;;;14.63;;
47167;SDS011;32931;47.778;17.806;2023-08-17T07:57:53;17.70;;;13.40;;
47167;SDS011;32931;47.778;17.806;2023-08-17T08:00:19;20.48;;;13.07;;
47167;SDS011;32931;47.778;17.806;2023-08-17T08:02:45;20.90;;;13.88;;
47167;SDS011;32931;47.778;17.806;2023-08-17T08:05:12;21.42;;;14.63;;
47167;SDS011;32931;47.778;17.806;2023-08-17T08:07:39;25.00;;;14.38;;
47167;SDS011;32931;47.778;17.806;2023-08-17T08:10:06;19.17;;;14.20;;
47167;SDS011;32931;47.778;17.806;2023-08-17T08:12:33;19.45;;;14.85;;
47167;SDS011;32931;47.778;17.806;2023-08-17T08:14:59;28.40;;;14.27;;
47167;SDS011;32931;47.778;17.806;2023-08-17T08:17:25;26.52;;;14.85;;
47167;SDS011;32931;47.778;17.806;2023-08-17T08:19:51;27.05;;;14.60;;
47167;SDS011;32931;47.778;17.806;2023-08-17T08:22:18;24.90;;;14.15;;
47167;SDS011;32931;47.778;17.806;2023-08-17T08:24:44;22.52;;;14.40;;
47167;SDS011;32931;47.778;17.806;2023-08-17T08:27:10;23.90;;;13.73;;
47167;SDS011;32931;47.778;17.806;2023-08-17T08:29:36;21.17;;;14.43;;
47167;SDS011;32931;47.778;17.806;2023-08-17T08:32:02;21.15;;;13.63;;
47167;SDS011;32931;47.778;17.806;2023-08-17T08:34:29;25.60;;;14.50;;
47167;SDS011;32931;47.778;17.806;2023-08-17T08:36:55;20.95;;;13.50;;
47167;SDS011;32931;47.778;17.806;2023-08-17T08:39:21;24.02;;;13.70;;
47167;SDS011;32931;47.778;17.806;2023-08-17T08:41:47;16.75;;;12.63;;
47167;SDS011;32931;47.778;17.806;2023-08-17T08:44:13;20.42;;;13.20;;
47167;SDS011;32931;47.778;17.806;2023-08-17T08:46:40;17.65;;;13.95;;
47167;SDS011;32931;47.778;17.806;2023-08-17T08:49:10;24.88;;;13.80;;
47167;SDS011;32931;47.778;17.806;2023-08-17T08:51:41;19.65;;;13.52;;
47167;SDS011;32931;47.778;17.806;2023-08-17T08:54:11;16.67;;;12.82;;
47167;SDS011;32931;47.778;17.806;2023-08-17T08:56:41;17.30;;;13.10;;
47167;SDS011;32931;47.778;17.806;2023-08-17T08:59:10;20.58;;;12.98;;
47167;SDS011;32931;47.778;17.806;2023-08-17T09:01:37;19.48;;;12.77;;
47167;SDS011;32931;47.778;17.806;2023-08-17T09:04:04;20.77;;;12.35;;
47167;SDS011;32931;47.778;17.806;2023-08-17T09:06:31;18.73;;;12.70;;
47167;SDS011;32931;47.778;17.806;2023-08-17T09:08:58;17.65;;;11.73;;
47167;SDS011;32931;47.778;17.806;2023-08-17T09:11:26;17.75;;;12.57;;
47167;SDS011;32931;47.778;17.806;2023-08-17T09:13:52;18.10;;;11.98;;
47167;SDS011;32931;47.778;17.806;2023-08-17T09:16:19;17.83;;;11.88;;
47167;SDS011;32931;47.778;17.806;2023-08-17T09:18:46;28.75;;;15.05;;
47167;SDS011;32931;47.778;17.806;2023-08-17T09:21:22;24.55;;;14.70;;
47167;SDS011;32931;47.778;17.806;2023-08-17T09:23:52;25.10;;;14.50;;
47167;SDS011;32931;47.778;17.806;2023-08-17T09:26:21;27.35;;;14.63;;
47167;SDS011;32931;47.778;17.806;2023-08-17T09:28:49;23.25;;;14.30;;
47167;SDS011;32931;47.778;17.806;2023-08-17T09:31:16;21.10;;;14.30;;
47167;SDS011;32931;47.778;17.806;2023-08-17T09:33:49;20.90;;;13.68;;
47167;SDS011;32931;47.778;17.806;2023-08-17T09:36:20;25.02;;;13.15;;
47167;SDS011;32931;47.778;17.806;2023-08-17T09:38:48;18.35;;;12.13;;
47167;SDS011;32931;47.778;17.806;2023-08-17T09:41:17;20.75;;;12.55;;
47167;SDS011;32931;47.778;17.806;2023-08-17T09:43:45;18.23;;;12.25;;
47167;SDS011;32931;47.778;17.806;2023-08-17T09:46:12;22.98;;;11.20;;
47167;SDS011;32931;47.778;17.806;2023-08-17T09:48:38;18.73;;;11.27;;
47167;SDS011;32931;47.778;17.806;2023-08-17T09:51:05;19.92;;;10.75;;
47167;SDS011;32931;47.778;17.806;2023-08-17T09:53:35;13.82;;;10.23;;
47167;SDS011;32931;47.778;17.806;2023-08-17T09:56:05;16.58;;;10.30;;
47167;SDS011;32931;47.778;17.806;2023-08-17T09:58:39;17.90;;;9.50;;
47167;SDS011;32931;47.778;17.806;2023-08-17T10:01:05;12.02;;;9.40;;
47167;SDS011;32931;47.778;17.806;2023-08-17T10:03:33;17.42;;;8.73;;
47167;SDS011;32931;47.778;17.806;2023-08-17T10:06:06;15.82;;;9.70;;
47167;SDS011;32931;47.778;17.806;2023-08-17T10:08:36;16.58;;;8.60;;
47167;SDS011;32931;47.778;17.806;2023-08-17T10:16:26;12.00;;;7.57;;
47167;SDS011;32931;47.778;17.806;2023-08-17T10:21:37;13.98;;;7.70;;
47167;SDS011;32931;47.778;17.806;2023-08-17T10:24:09;15.35;;;7.05;;
47167;SDS011;32931;47.778;17.806;2023-08-17T10:26:37;18.05;;;7.78;;
47167;SDS011;32931;47.778;17.806;2023-08-17T10:29:04;14.32;;;7.68;;
47167;SDS011;32931;47.778;17.806;2023-08-17T10:31:33;11.43;;;7.15;;
47167;SDS011;32931;47.778;17.806;2023-08-17T10:34:01;16.15;;;7.00;;
47167;SDS011;32931;47.778;17.806;2023-08-17T10:36:28;9.10;;;6.88;;
47167;SDS011;32931;47.778;17.806;2023-08-17T10:41:49;14.32;;;6.60;;
47167;SDS011;32931;47.778;17.806;2023-08-17T10:44:17;19.20;;;6.80;;
47167;SDS011;32931;47.778;17.806;2023-08-17T10:46:43;9.05;;;6.53;;
47167;SDS011;32931;47.778;17.806;2023-08-17T10:49:26;11.18;;;6.47;;
47167;SDS011;32931;47.778;17.806;2023-08-17T10:52:02;16.75;;;7.70;;
47167;SDS011;32931;47.778;17.806;2023-08-17T10:54:38;10.68;;;6.57;;
47167;SDS011;32931;47.778;17.806;2023-08-17T11:00:23;11.48;;;6.30;;
47167;SDS011;32931;47.778;17.806;2023-08-17T11:02:53;18.08;;;6.53;;
47167;SDS011;32931;47.778;17.806;2023-08-17T11:08:29;10.05;;;6.25;;
47167;SDS011;32931;47.778;17.806;2023-08-17T11:11:07;14.95;;;6.10;;
47167;SDS011;32931;47.778;17.806;2023-08-17T11:13:39;12.80;;;6.20;;
47167;SDS011;32931;47.778;17.806;2023-08-17T11:16:07;11.95;;;6.15;;
47167;SDS011;32931;47.778;17.806;2023-08-17T11:18:34;15.38;;;6.07;;
47167;SDS011;32931;47.778;17.806;2023-08-17T11:21:04;12.13;;;6.03;;
47167;SDS011;32931;47.778;17.806;2023-08-17T11:23:32;13.43;;;6.53;;
47167;SDS011;32931;47.778;17.806;2023-08-17T11:26:00;12.45;;;6.15;;
47167;SDS011;32931;47.778;17.806;2023-08-17T11:28:29;15.55;;;6.05;;
47167;SDS011;32931;47.778;17.806;2023-08-17T11:31:02;14.77;;;6.60;;
47167;SDS011;32931;47.778;17.806;2023-08-17T11:33:30;12.95;;;6.50;;
47167;SDS011;32931;47.778;17.806;2023-08-17T11:35:58;12.15;;;6.68;;
47167;SDS011;32931;47.778;17.806;2023-08-17T11:38:26;15.45;;;7.15;;
47167;SDS011;32931;47.778;17.806;2023-08-17T11:40:55;16.17;;;6.97;;
47167;SDS011;32931;47.778;17.806;2023-08-17T11:43:24;14.82;;;7.00;;
47167;SDS011;32931;47.778;17.806;2023-08-17T11:45:51;14.90;;;7.53;;
47167;SDS011;32931;47.778;17.806;2023-08-17T11:48:20;12.07;;;7.82;;
47167;SDS011;32931;47.778;17.806;2023-08-17T11:50:47;14.18;;;8.00;;
47167;SDS011;32931;47.778;17.806;2023-08-17T11:53:14;13.50;;;8.38;;
47167;SDS011;32931;47.778;17.806;2023-08-17T11:55:41;19.05;;;8.38;;
47167;SDS011;32931;47.778;17.806;2023-08-17T11:58:07;11.48;;;8.18;;
47167;SDS011;32931;47.778;17.806;2023-08-17T12:00:36;14.15;;;8.48;;
47167;SDS011;32931;47.778;17.806;2023-08-17T12:03:06;12.00;;;8.43;;
47167;SDS011;32931;47.778;17.806;2023-08-17T12:05:33;16.58;;;9.20;;
47167;SDS011;32931;47.778;17.806;2023-08-17T12:07:59;15.95;;;9.23;;
47167;SDS011;32931;47.778;17.806;2023-08-17T12:10:27;15.48;;;8.75;;
47167;SDS011;32931;47.778;17.806;2023-08-17T12:12:57;14.88;;;8.55;;
47167;SDS011;32931;47.778;17.806;2023-08-17T12:15:29;14.13;;;9.65;;
47167;SDS011;32931;47.778;17.806;2023-08-17T12:18:00;21.95;;;9.45;;
47167;SDS011;32931;47.778;17.806;2023-08-17T12:20:28;23.42;;;9.13;;
47167;SDS011;32931;47.778;17.806;2023-08-17T12:22:56;19.73;;;9.07;;
47167;SDS011;32931;47.778;17.806;2023-08-17T12:25:24;20.38;;;8.57;;
47167;SDS011;32931;47.778;17.806;2023-08-17T12:27:51;17.20;;;9.02;;
47167;SDS011;32931;47.778;17.806;2023-08-17T12:30:27;20.92;;;9.18;;
47167;SDS011;32931;47.778;17.806;2023-08-17T12:32:55;17.08;;;8.85;;
47167;SDS011;32931;47.778;17.806;2023-08-17T12:35:21;25.02;;;9.02;;
47167;SDS011;32931;47.778;17.806;2023-08-17T12:37:50;14.05;;;8.48;;
47167;SDS011;32931;47.778;17.806;2023-08-17T12:40:20;13.60;;;8.48;;
47167;SDS011;32931;47.778;17.806;2023-08-17T12:42:46;16.20;;;8.18;;
47167;SDS011;32931;47.778;17.806;2023-08-17T12:45:13;14.27;;;8.50;;
47167;SDS011;32931;47.778;17.806;2023-08-17T12:47:39;13.10;;;7.78;;
47167;SDS011;32931;47.778;17.806;2023-08-17T12:50:05;11.02;;;7.55;;
47167;SDS011;32931;47.778;17.806;2023-08-17T12:52:32;11.25;;;7.38;;
47167;SDS011;32931;47.778;17.806;2023-08-17T12:54:58;18.45;;;7.88;;
47167;SDS011;32931;47.778;17.806;2023-08-17T12:57:24;12.98;;;8.18;;
47167;SDS011;32931;47.778;17.806;2023-08-17T12:59:52;12.10;;;8.27;;
47167;SDS011;32931;47.778;17.806;2023-08-17T13:02:19;14.82;;;7.63;;
47167;SDS011;32931;47.778;17.806;2023-08-17T13:04:46;15.55;;;8.30;;
47167;SDS011;32931;47.778;17.806;2023-08-17T13:07:12;10.57;;;7.78;;
47167;SDS011;32931;47.778;17.806;2023-08-17T13:09:39;9.68;;;7.35;;
47167;SDS011;32931;47.778;17.806;2023-08-17T13:12:05;14.85;;;8.18;;
47167;SDS011;32931;47.778;17.806;2023-08-17T13:14:31;12.13;;;8.60;;
47167;SDS011;32931;47.778;17.806;2023-08-17T13:16:57;14.50;;;8.05;;
47167;SDS011;32931;47.778;17.806;2023-08-17T13:19:23;10.90;;;7.90;;
47167;SDS011;32931;47.778;17.806;2023-08-17T13:21:50;14.15;;;8.23;;
47167;SDS011;32931;47.778;17.806;2023-08-17T13:24:16;13.88;;;7.65;;
47167;SDS011;32931;47.778;17.806;2023-08-17T13:26:42;11.65;;;7.57;;
47167;SDS011;32931;47.778;17.806;2023-08-17T13:29:08;11.13;;;7.00;;
47167;SDS011;32931;47.778;17.806;2023-08-17T13:31:35;8.88;;;6.80;;
47167;SDS011;32931;47.778;17.806;2023-08-17T13:34:01;11.32;;;7.00;;
47167;SDS011;32931;47.778;17.806;2023-08-17T13:36:27;13.25;;;7.53;;
47167;SDS011;32931;47.778;17.806;2023-08-17T13:38:54;10.25;;;6.70;;
47167;SDS011;32931;47.778;17.806;2023-08-17T13:41:20;15.10;;;7.20;;
47167;SDS011;32931;47.778;17.806;2023-08-17T13:43:47;11.45;;;6.78;;
47167;SDS011;32931;47.778;17.806;2023-08-17T13:46:13;10.60;;;7.03;;
47167;SDS011;32931;47.778;17.806;2023-08-17T13:48:39;12.20;;;6.22;;
47167;SDS011;32931;47.778;17.806;2023-08-17T13:51:07;10.15;;;6.30;;
47167;SDS011;32931;47.778;17.806;2023-08-17T13:53:33;14.05;;;6.25;;
47167;SDS011;32931;47.778;17.806;2023-08-17T13:55:59;8.55;;;6.63;;
47167;SDS011;32931;47.778;17.806;2023-08-17T13:58:25;9.52;;;6.70;;
47167;SDS011;32931;47.778;17.806;2023-08-17T14:00:51;8.93;;;6.18;;
47167;SDS011;32931;47.778;17.806;2023-08-17T14:03:17;8.23;;;5.78;;
47167;SDS011;32931;47.778;17.806;2023-08-17T14:05:43;7.85;;;5.95;;
47167;SDS011;32931;47.778;17.806;2023-08-17T14:08:10;11.07;;;6.03;;
47167;SDS011;32931;47.778;17.806;2023-08-17T14:10:37;9.20;;;6.00;;
47167;SDS011;32931;47.778;17.806;2023-08-17T14:13:03;7.32;;;6.15;;
47167;SDS011;32931;47.778;17.806;2023-08-17T14:15:30;8.05;;;6.25;;
47167;SDS011;32931;47.778;17.806;2023-08-17T14:17:56;10.00;;;6.13;;
47167;SDS011;32931;47.778;17.806;2023-08-17T14:20:22;11.30;;;6.07;;
47167;SDS011;32931;47.778;17.806;2023-08-17T14:22:48;14.20;;;5.78;;
47167;SDS011;32931;47.778;17.806;2023-08-17T14:25:14;12.18;;;6.60;;
47167;SDS011;32931;47.778;17.806;2023-08-17T14:27:41;7.78;;;5.63;;
47167;SDS011;32931;47.778;17.806;2023-08-17T14:30:07;13.30;;;6.30;;
47167;SDS011;32931;47.778;17.806;2023-08-17T14:32:33;11.50;;;6.63;;
47167;SDS011;32931;47.778;17.806;2023-08-17T14:35:00;9.57;;;6.63;;
47167;SDS011;32931;47.778;17.806;2023-08-17T14:37:26;8.48;;;6.68;;
47167;SDS011;32931;47.778;17.806;2023-08-17T14:39:52;9.02;;;6.28;;